Time;durP1;ratioP1;P1;durP2;ratioP2;P2;SDS_P1;SDS_P2;PMS_P1;PMS_P2;Temp;Humidity;BMP_temperature;BMP_pressure;BME280_temperature;BME280_humidity;BME280_pressure;Samples;Min_cycle;Max_cycle;Signal;HPM_P1;HPM_P2
2022/09/07 00:21:12;;;;;;;3.4;1.4;;;;;;;;;;;;;-79
2022/09/07 00:51:15;;;;;;;3.9;1.3;;;;;;;;;;;;;-78
2022/09/07 01:21:21;;;;;;;3.5;1.1;;;;;;;;;;;;;-79
2022/09/07 01:51:18;;;;;;;3.2;1;;;;;;;;;;;;;-78
2022/09/07 02:21:21;;;;;;;1.4;0.7;;;;;;;;;;;;;-79
2022/09/07 02:51:25;;;;;;;3.5;0.7;;;;;;;;;;;;;-78
2022/09/07 03:21:24;;;;;;;1.4;0.6;;;;;;;;;;;;;-78
2022/09/07 03:51:26;;;;;;;1.9;0.7;;;;;;;;;;;;;-77
2022/09/07 04:21:29;;;;;;;1.8;0.7;;;;;;;;;;;;;-78
2022/09/07 04:51:31;;;;;;;0.9;0.5;;;;;;;;;;;;;-78
2022/09/07 05:21:33;;;;;;;1.8;0.7;;;;;;;;;;;;;-78
2022/09/07 05:51:37;;;;;;;1.8;0.8;;;;;;;;;;;;;-77
2022/09/07 06:21:38;;;;;;;1.3;0.7;;;;;;;;;;;;;-76
2022/09/07 06:51:41;;;;;;;2.6;0.9;;;;;;;;;;;;;-78
2022/09/07 07:21:41;;;;;;;2.3;1.2;;;;;;;;;;;;;-78
2022/09/07 07:51:44;;;;;;;5;1.9;;;;;;;;;;;;;-77
2022/09/07 08:21:47;;;;;;;5;2;;;;;;;;;;;;;-78
2022/09/07 08:51:50;;;;;;;4.9;2.4;;;;;;;;;;;;;-77
2022/09/07 09:21:56;;;;;;;12.2;2.9;;;;;;;;;;;;;-78
2022/09/07 09:51:59;;;;;;;5.3;2.6;;;;;;;;;;;;;-78
2022/09/07 10:22:04;;;;;;;5.3;1.9;;;;;;;;;;;;;-76
2022/09/07 10:52:07;;;;;;;3.5;1.4;;;;;;;;;;;;;-75
2022/09/07 11:22:18;;;;;;;3.6;1.2;;;;;;;;;;;;;-76
2022/09/07 11:52:22;;;;;;;3.7;1.1;;;;;;;;;;;;;-76
2022/09/07 12:22:25;;;;;;;4.1;1.2;;;;;;;;;;;;;-76
2022/09/07 12:52:36;;;;;;;3.4;1.4;;;;;;;;;;;;;-77
2022/09/07 13:22:41;;;;;;;4.8;1.2;;;;;;;;;;;;;-76
2022/09/07 13:52:43;;;;;;;3.6;1.3;;;;;;;;;;;;;-77
2022/09/07 14:22:39;;;;;;;3.8;1.1;;;;;;;;;;;;;-76
2022/09/07 14:52:44;;;;;;;4.9;1.4;;;;;;;;;;;;;-75
2022/09/07 15:22:48;;;;;;;3.7;1.1;;;;;;;;;;;;;-76
2022/09/07 15:52:52;;;;;;;3.4;1.2;;;;;;;;;;;;;-76
2022/09/07 16:22:57;;;;;;;3.9;1.5;;;;;;;;;;;;;-77
2022/09/07 16:53:04;;;;;;;5.3;1.7;;;;;;;;;;;;;-76
2022/09/07 17:23:05;;;;;;;5.7;1.8;;;;;;;;;;;;;-78
2022/09/07 17:53:08;;;;;;;5.6;1.8;;;;;;;;;;;;;-77
2022/09/07 18:23:13;;;;;;;5.5;1.8;;;;;;;;;;;;;-76
2022/09/07 18:53:15;;;;;;;5.6;2;;;;;;;;;;;;;-77
2022/09/07 19:23:18;;;;;;;9.2;2.4;;;;;;;;;;;;;-74
2022/09/07 19:53:21;;;;;;;8.4;2.4;;;;;;;;;;;;;-74
2022/09/07 20:23:23;;;;;;;8.9;2.9;;;;;;;;;;;;;-77
2022/09/07 20:53:25;;;;;;;7;2.6;;;;;;;;;;;;;-75
2022/09/07 21:23:28;;;;;;;5.9;2.5;;;;;;;;;;;;;-75
2022/09/07 21:53:30;;;;;;;7.2;2.5;;;;;;;;;;;;;-75
2022/09/07 22:23:33;;;;;;;9.6;3.4;;;;;;;;;;;;;-77
2022/09/07 22:53:39;;;;;;;5.6;2;;;;;;;;;;;;;-78
2022/09/07 23:23:38;;;;;;;4.4;1.7;;;;;;;;;;;;;-77
2022/09/07 23:53:41;;;;;;;5.9;1.8;;;;;;;;;;;;;-77
